createdAt,value
2023-05-20T00:00:03.338Z,70.31
2023-05-20T00:02:32.042Z,70.45
2023-05-20T00:05:03.397Z,71.46
2023-05-20T00:07:30.126Z,71.94
2023-05-20T00:09:59.816Z,71.25
2023-05-20T00:12:26.641Z,71.56
2023-05-20T00:14:55.924Z,71.35
2023-05-20T00:17:26.650Z,70.68
2023-05-20T00:19:53.353Z,72.21
2023-05-20T00:22:20.086Z,71.94
2023-05-20T00:24:49.080Z,71.58
2023-05-20T00:27:18.225Z,71.95
2023-05-20T00:29:48.165Z,72.22
2023-05-20T00:32:17.398Z,72.73
2023-05-20T00:34:44.533Z,73.75
2023-05-20T00:37:11.177Z,75.29
2023-05-20T00:39:37.832Z,75.18
2023-05-20T00:42:04.848Z,75.40
2023-05-20T00:44:33.961Z,77.21
2023-05-20T00:47:03.577Z,77.57
2023-05-20T00:49:33.509Z,77.19
2023-05-20T00:52:00.145Z,77.90
2023-05-20T00:54:26.798Z,77.42
2023-05-20T00:56:53.494Z,76.04
2023-05-20T00:59:20.563Z,75.66
2023-05-20T01:01:47.270Z,76.14
2023-05-20T01:04:14.004Z,75.37
2023-05-20T01:06:51.003Z,74.69
2023-05-20T01:09:17.694Z,74.31
2023-05-20T01:11:53.020Z,74.99
2023-05-20T01:14:19.826Z,74.19
2023-05-20T01:16:50.319Z,73.66
2023-05-20T01:19:44.117Z,73.32
2023-05-20T01:22:13.719Z,73.34
2023-05-20T01:24:44.320Z,72.89
2023-05-20T01:27:11.756Z,73.42
2023-05-20T01:29:44.112Z,73.34
2023-05-20T01:32:11.591Z,73.58
2023-05-20T01:34:39.514Z,73.85
2023-05-20T01:37:06.372Z,72.94
2023-05-20T01:39:33.836Z,72.91
2023-05-20T01:42:00.902Z,73.31
2023-05-20T01:44:27.835Z,73.93
2023-05-20T01:46:54.612Z,73.14
2023-05-20T01:49:21.739Z,73.38
2023-05-20T01:51:48.461Z,73.50
2023-05-20T01:54:15.093Z,72.75
2023-05-20T01:56:44.196Z,72.44
2023-05-20T01:59:13.215Z,73.11
2023-05-20T02:01:39.883Z,72.92
2023-05-20T02:04:06.605Z,72.63
2023-05-20T02:06:36.158Z,72.76
2023-05-20T02:09:05.398Z,72.85
2023-05-20T02:11:37.489Z,72.77
2023-05-20T02:14:04.173Z,72.56
2023-05-20T02:16:30.970Z,72.48
2023-05-20T02:18:58.692Z,72.17
2023-05-20T02:21:25.974Z,71.71
2023-05-20T02:23:53.797Z,73.11
2023-05-20T02:26:20.820Z,72.65
2023-05-20T02:28:50.747Z,72.39
2023-05-20T02:31:17.944Z,73.12
2023-05-20T02:33:47.934Z,72.31
2023-05-20T02:36:17.338Z,72.60
2023-05-20T02:38:45.090Z,72.39
2023-05-20T02:41:11.817Z,72.60
2023-05-20T02:43:41.196Z,72.31
2023-05-20T02:46:10.019Z,72.54
2023-05-20T02:48:39.948Z,72.53
2023-05-20T02:51:07.098Z,74.03
2023-05-20T02:53:33.811Z,74.18
2023-05-20T02:56:01.749Z,73.79
2023-05-20T02:58:36.456Z,73.29
2023-05-20T03:01:07.259Z,74.02
2023-05-20T03:03:33.989Z,73.32
2023-05-20T03:06:00.944Z,73.68
2023-05-20T03:08:27.667Z,73.99
2023-05-20T03:10:56.941Z,74.03
2023-05-20T03:13:23.854Z,74.03
2023-05-20T03:15:53.389Z,74.49
2023-05-20T03:18:28.044Z,73.89
2023-05-20T03:20:57.536Z,74.12
2023-05-20T03:23:24.267Z,73.89
2023-05-20T03:25:51.210Z,75.21
2023-05-20T03:28:18.010Z,74.64
2023-05-20T03:30:44.750Z,74.75
2023-05-20T03:33:14.626Z,74.16
2023-05-20T03:35:41.290Z,73.73
2023-05-20T03:38:07.882Z,73.74
2023-05-20T03:40:37.174Z,73.75
2023-05-20T03:43:05.385Z,73.09
2023-05-20T03:45:34.325Z,72.46
2023-05-20T03:48:07.122Z,72.47
2023-05-20T03:50:40.922Z,72.73
2023-05-20T03:53:07.866Z,73.15
2023-05-20T03:55:39.606Z,72.93
2023-05-20T03:58:06.963Z,72.07
2023-05-20T04:00:36.372Z,71.77
2023-05-20T04:03:03.370Z,72.11
2023-05-20T04:05:30.320Z,73.00
2023-05-20T04:08:01.229Z,73.20
2023-05-20T04:10:27.917Z,73.35
2023-05-20T04:12:57.027Z,74.02
2023-05-20T04:15:26.584Z,75.00
2023-05-20T04:17:55.898Z,75.15
2023-05-20T04:20:25.639Z,74.94
2023-05-20T04:22:55.453Z,75.22
2023-05-20T04:25:22.337Z,74.89
2023-05-20T04:27:49.856Z,74.27
2023-05-20T04:30:21.824Z,74.39
2023-05-20T04:32:51.186Z,74.83
2023-05-20T04:35:18.426Z,75.37
2023-05-20T04:37:49.517Z,75.22
2023-05-20T04:40:17.164Z,75.58
2023-05-20T04:42:45.026Z,75.36
2023-05-20T04:45:12.725Z,75.53
2023-05-20T04:47:42.636Z,75.12
2023-05-20T04:50:12.379Z,74.44
2023-05-20T04:52:43.840Z,74.56
2023-05-20T04:55:16.304Z,74.53
2023-05-20T04:57:45.552Z,74.19
2023-05-20T05:00:13.445Z,74.62
2023-05-20T05:02:43.797Z,73.74
2023-05-20T05:05:10.564Z,73.92
2023-05-20T05:07:38.281Z,73.89
2023-05-20T05:10:08.204Z,73.53
2023-05-20T05:12:35.106Z,73.08
2023-05-20T05:15:03.485Z,72.41
2023-05-20T05:17:30.331Z,73.94
2023-05-20T05:20:00.452Z,73.39
2023-05-20T05:22:31.556Z,73.00
2023-05-20T05:24:59.043Z,72.85
2023-05-20T05:27:30.567Z,72.98
2023-05-20T05:30:00.175Z,72.56
2023-05-20T05:32:44.403Z,72.10
2023-05-20T05:35:11.454Z,72.32
2023-05-20T05:37:39.195Z,72.21
2023-05-20T05:40:11.510Z,72.08
2023-05-20T05:42:41.253Z,71.52
2023-05-20T05:45:14.591Z,71.25
2023-05-20T05:47:47.229Z,70.76
2023-05-20T05:50:14.468Z,70.34
2023-05-20T05:52:41.483Z,69.84
2023-05-20T05:55:10.681Z,69.28
2023-05-20T05:57:40.459Z,68.69
2023-05-20T06:00:11.453Z,68.68
2023-05-20T06:02:49.798Z,68.26
2023-05-20T06:05:34.291Z,68.13
2023-05-20T06:08:07.083Z,67.77
2023-05-20T06:10:36.889Z,67.67
2023-05-20T06:13:05.965Z,67.60
2023-05-20T06:15:36.419Z,67.80
2023-05-20T06:18:08.131Z,67.06
2023-05-20T06:20:37.449Z,66.78
2023-05-20T06:23:04.176Z,66.30
2023-05-20T06:25:39.551Z,65.90
2023-05-20T06:28:06.877Z,65.99
2023-05-20T06:30:35.691Z,65.81
2023-05-20T06:33:02.959Z,64.91
2023-05-20T06:35:30.859Z,65.09
2023-05-20T06:38:01.270Z,64.98
2023-05-20T06:40:28.391Z,65.07
2023-05-20T06:42:55.090Z,65.02
2023-05-20T06:45:42.208Z,65.04
2023-05-20T06:48:26.946Z,64.67
2023-05-20T06:50:54.255Z,64.93
2023-05-20T06:53:21.673Z,64.50
2023-05-20T06:55:48.430Z,64.42
2023-05-20T06:58:18.050Z,64.09
2023-05-20T07:00:44.766Z,63.55
2023-05-20T07:03:11.788Z,63.32
2023-05-20T07:05:40.673Z,62.84
2023-05-20T07:08:11.441Z,62.92
2023-05-20T07:10:38.706Z,61.89
2023-05-20T07:13:07.982Z,61.05
2023-05-20T07:15:34.946Z,59.98
2023-05-20T07:18:02.261Z,59.29
2023-05-20T07:20:32.303Z,58.58
2023-05-20T07:23:05.995Z,58.98
2023-05-20T07:25:42.202Z,58.35
2023-05-20T07:28:09.009Z,57.08
2023-05-20T07:30:35.852Z,57.79
2023-05-20T07:33:19.264Z,55.75
2023-05-20T07:35:49.428Z,57.01
2023-05-20T07:38:19.738Z,57.46
2023-05-20T07:40:51.633Z,55.91
2023-05-20T07:43:23.429Z,55.96
2023-05-20T07:45:51.179Z,56.39
2023-05-20T07:48:19.962Z,56.64
2023-05-20T07:50:53.596Z,56.70
2023-05-20T07:53:20.983Z,55.96
2023-05-20T07:55:48.088Z,55.65
2023-05-20T07:58:14.885Z,55.42
2023-05-20T08:00:41.605Z,54.85
2023-05-20T08:03:08.911Z,55.09
2023-05-20T08:05:46.730Z,55.07
2023-05-20T08:08:16.268Z,54.08
2023-05-20T08:10:54.655Z,55.33
2023-05-20T08:13:24.954Z,54.72
2023-05-20T08:15:58.215Z,54.64
2023-05-20T08:18:29.150Z,55.02
2023-05-20T08:21:01.343Z,54.54
2023-05-20T08:23:28.100Z,54.85
2023-05-20T08:25:54.944Z,54.17
2023-05-20T08:28:23.855Z,53.11
2023-05-20T08:30:52.200Z,53.72
2023-05-20T08:33:22.584Z,53.34
2023-05-20T08:35:49.427Z,53.93
2023-05-20T08:38:16.251Z,53.05
2023-05-20T08:40:45.284Z,52.72
2023-05-20T08:43:30.756Z,52.07
2023-05-20T08:46:08.924Z,53.05
2023-05-20T08:48:41.139Z,53.19
2023-05-20T08:51:12.902Z,51.99
2023-05-20T08:53:39.932Z,52.45
2023-05-20T08:56:06.821Z,51.12
2023-05-20T08:58:33.664Z,51.67
2023-05-20T09:01:01.460Z,51.54
2023-05-20T09:03:28.208Z,51.16
2023-05-20T09:06:07.001Z,51.26
2023-05-20T09:08:36.042Z,51.79
2023-05-20T09:11:02.826Z,51.21
2023-05-20T09:13:30.985Z,51.27
2023-05-20T09:16:01.230Z,51.29
2023-05-20T09:18:28.004Z,49.27
2023-05-20T09:20:55.061Z,48.98
2023-05-20T09:23:30.890Z,50.34
2023-05-20T09:26:00.375Z,48.39
2023-05-20T09:28:30.311Z,49.49
2023-05-20T09:31:02.437Z,48.76
2023-05-20T09:33:36.915Z,47.56
2023-05-20T09:36:04.628Z,48.64
2023-05-20T09:38:38.286Z,48.42
2023-05-20T09:41:11.235Z,47.53
2023-05-20T09:43:43.503Z,48.12
2023-05-20T09:46:10.214Z,46.14
2023-05-20T09:48:37.610Z,46.27
2023-05-20T09:51:07.375Z,47.40
2023-05-20T09:53:39.448Z,47.14
2023-05-20T09:56:06.221Z,46.52
2023-05-20T09:58:36.381Z,45.46
2023-05-20T10:01:06.651Z,45.01
2023-05-20T10:03:36.232Z,44.33
2023-05-20T10:06:06.696Z,43.55
2023-05-20T10:08:40.053Z,43.26
2023-05-20T10:11:21.509Z,43.48
2023-05-20T10:14:00.711Z,43.62
2023-05-20T10:16:30.801Z,42.95
2023-05-20T10:18:59.832Z,43.06
2023-05-20T10:21:28.923Z,41.78
2023-05-20T10:24:05.765Z,41.01
2023-05-20T10:26:44.251Z,41.27
2023-05-20T10:29:41.433Z,40.71
2023-05-20T10:35:53.501Z,38.82
2023-05-20T10:38:24.131Z,38.67
2023-05-20T10:41:26.781Z,37.84
2023-05-20T10:44:01.486Z,38.13
2023-05-20T10:46:38.023Z,37.37
2023-05-20T10:49:19.611Z,37.33
2023-05-20T10:51:50.599Z,36.75
2023-05-20T10:54:31.509Z,36.76
2023-05-20T10:57:12.173Z,36.28
2023-05-20T11:00:24.986Z,36.14
2023-05-20T11:04:13.710Z,36.20
2023-05-20T11:06:18.565Z,35.52
2023-05-20T11:09:04.084Z,34.44
2023-05-20T11:11:42.355Z,35.14
2023-05-20T11:15:27.128Z,35.44
2023-05-20T11:18:50.689Z,34.18
2023-05-20T11:22:24.827Z,33.91
2023-05-20T11:25:08.733Z,33.64
2023-05-20T11:28:16.725Z,33.22
2023-05-20T11:34:44.445Z,32.84
2023-05-20T11:37:01.875Z,32.80
2023-05-20T11:37:41.298Z,32.30
2023-05-20T11:40:54.082Z,31.21
2023-05-20T11:43:29.353Z,31.16
2023-05-20T11:46:13.248Z,31.90
2023-05-20T11:49:03.335Z,31.30
2023-05-20T11:51:44.312Z,31.21
2023-05-20T11:54:15.935Z,30.33
2023-05-20T11:56:47.655Z,29.40
2023-05-20T11:59:14.906Z,28.21
2023-05-20T12:01:41.790Z,27.73
2023-05-20T12:04:13.465Z,28.35
2023-05-20T12:06:56.223Z,27.98
2023-05-20T12:09:27.818Z,27.30
2023-05-20T12:12:38.042Z,27.69
2023-05-20T12:15:33.504Z,27.22
2023-05-20T12:18:34.398Z,26.89
2023-05-20T12:21:09.083Z,26.37
2023-05-20T12:23:41.092Z,26.81
2023-05-20T12:26:18.047Z,25.34
2023-05-20T12:33:14.784Z,23.79
2023-05-20T12:46:07.931Z,19.60
2023-05-20T12:50:19.016Z,19.69
2023-05-20T12:53:19.144Z,19.17
2023-05-20T12:55:47.468Z,18.33
2023-05-20T12:58:24.018Z,18.35
2023-05-20T13:01:05.681Z,18.21
2023-05-20T13:04:04.703Z,18.25
2023-05-20T13:07:09.045Z,17.79
2023-05-20T13:09:40.810Z,18.12
2023-05-20T13:12:35.622Z,17.19
2023-05-20T13:18:03.715Z,18.04
2023-05-20T13:18:06.146Z,17.34
2023-05-20T13:20:31.341Z,17.85
2023-05-20T13:23:34.143Z,17.01
2023-05-20T13:26:28.163Z,16.95
2023-05-20T13:29:00.141Z,17.05
2023-05-20T13:31:34.365Z,17.00
2023-05-20T13:34:08.851Z,16.63
2023-05-20T13:36:53.713Z,16.00
2023-05-20T13:39:28.437Z,15.33
2023-05-20T13:42:38.967Z,15.85
2023-05-20T13:46:20.021Z,16.35
2023-05-20T13:48:41.894Z,15.60
2023-05-20T13:51:12.332Z,15.38
2023-05-20T13:53:41.735Z,15.49
2023-05-20T13:56:12.954Z,15.72
2023-05-20T13:58:39.829Z,16.91
2023-05-20T14:01:06.986Z,16.77
2023-05-20T14:03:37.539Z,17.21
2023-05-20T14:09:03.064Z,16.53
2023-05-20T14:09:53.022Z,16.21
2023-05-20T14:12:52.280Z,15.71
2023-05-20T14:15:21.517Z,16.10
2023-05-20T14:18:46.636Z,15.72
2023-05-20T14:21:35.307Z,15.31
2023-05-20T14:23:36.094Z,15.03
2023-05-20T14:26:14.933Z,15.17
2023-05-20T14:28:52.919Z,14.98
2023-05-20T14:31:29.249Z,15.36
2023-05-20T14:34:02.667Z,15.03
2023-05-20T14:36:39.542Z,14.58
2023-05-20T14:39:14.057Z,15.17
2023-05-20T14:41:54.392Z,15.14
2023-05-20T14:44:23.549Z,15.87
2023-05-20T14:46:50.579Z,15.35
2023-05-20T14:49:21.949Z,14.66
2023-05-20T14:51:49.019Z,14.75
2023-05-20T14:54:17.184Z,14.59
2023-05-20T14:56:44.130Z,15.33
2023-05-20T14:59:11.053Z,15.25
2023-05-20T15:01:37.945Z,14.83
2023-05-20T15:04:05.258Z,15.33
2023-05-20T15:06:33.686Z,15.12
2023-05-20T15:09:07.366Z,14.87
2023-05-20T15:11:48.783Z,14.71
2023-05-20T15:14:21.805Z,15.97
2023-05-20T15:16:53.912Z,16.98
2023-05-20T15:19:23.884Z,17.25
2023-05-20T15:21:56.868Z,18.46
2023-05-20T15:24:28.777Z,19.63
2023-05-20T15:27:05.707Z,19.62
2023-05-20T15:29:40.974Z,20.18
2023-05-20T15:32:10.346Z,18.98
2023-05-20T15:34:41.710Z,19.59
2023-05-20T15:37:11.181Z,19.05
2023-05-20T15:39:38.760Z,19.07
2023-05-20T15:42:08.201Z,19.33
2023-05-20T15:44:40.492Z,20.31
2023-05-20T15:47:09.941Z,20.13
2023-05-20T15:49:59.548Z,19.86
2023-05-20T15:52:28.662Z,20.39
2023-05-20T15:55:02.392Z,20.69
2023-05-20T15:57:37.564Z,21.28
2023-05-20T16:00:09.567Z,22.19
2023-05-20T16:02:53.195Z,23.10
2023-05-20T16:05:36.602Z,23.28
2023-05-20T16:24:28.521Z,25.45
2023-05-20T16:25:39.413Z,27.83
2023-05-20T16:29:07.649Z,27.67
2023-05-20T16:36:02.747Z,28.21
2023-05-20T16:38:41.660Z,27.81
2023-05-20T16:41:28.186Z,28.00
2023-05-20T16:44:02.380Z,28.50
2023-05-20T16:46:42.514Z,28.89
2023-05-20T16:49:09.526Z,29.07
2023-05-20T16:51:36.737Z,29.64
2023-05-20T16:54:04.085Z,29.69
2023-05-20T16:56:42.396Z,29.98
2023-05-20T16:59:17.751Z,30.05
2023-05-20T17:01:52.283Z,30.61
2023-05-20T17:04:24.982Z,31.06
2023-05-20T17:06:56.966Z,31.19
2023-05-20T17:09:25.378Z,31.04
2023-05-20T17:11:58.690Z,31.73
2023-05-20T17:14:35.193Z,31.96
2023-05-20T17:17:10.636Z,32.07
2023-05-20T17:19:42.175Z,32.00
2023-05-20T17:22:08.967Z,32.02
2023-05-20T17:24:38.807Z,32.29
2023-05-20T17:27:11.253Z,32.39
2023-05-20T17:29:58.037Z,32.32
2023-05-20T17:32:25.004Z,33.17
2023-05-20T17:35:08.696Z,32.66
2023-05-20T17:37:38.179Z,32.68
2023-05-20T17:40:16.320Z,32.45
2023-05-20T17:45:28.609Z,32.56
2023-05-20T17:47:55.896Z,33.01
2023-05-20T17:50:28.730Z,33.24
2023-05-20T17:52:55.938Z,33.31
2023-05-20T17:55:22.984Z,32.99
2023-05-20T17:57:54.243Z,33.55
2023-05-20T18:00:26.237Z,33.41
2023-05-20T18:03:00.943Z,33.51
2023-05-20T18:05:35.604Z,34.09
2023-05-20T18:08:14.170Z,33.61
2023-05-20T18:10:51.352Z,34.14
2023-05-20T18:13:27.543Z,33.84
2023-05-20T18:15:58.181Z,33.92
2023-05-20T18:18:25.402Z,34.32
2023-05-20T18:20:52.900Z,34.29
2023-05-20T18:23:27.739Z,34.06
2023-05-20T18:25:54.757Z,34.43
2023-05-20T18:28:26.911Z,34.90
2023-05-20T18:30:55.787Z,34.57
2023-05-20T18:33:24.769Z,34.95
2023-05-20T18:35:57.211Z,35.21
2023-05-20T18:38:24.249Z,35.38
2023-05-20T18:41:01.734Z,35.41
2023-05-20T18:54:01.738Z,37.22
2023-05-20T18:56:32.612Z,37.18
2023-05-20T18:59:00.007Z,37.25
2023-05-20T19:01:27.595Z,37.65
2023-05-20T19:03:54.704Z,38.73
2023-05-20T19:06:23.805Z,38.00
2023-05-20T19:08:50.995Z,38.80
2023-05-20T19:11:21.673Z,39.26
2023-05-20T19:13:48.624Z,39.55
2023-05-20T19:16:16.181Z,39.00
2023-05-20T19:18:45.792Z,39.02
2023-05-20T19:21:12.922Z,39.75
2023-05-20T19:23:39.894Z,39.16
2023-05-20T19:26:15.566Z,39.57
2023-05-20T19:28:45.262Z,40.43
2023-05-20T19:31:12.476Z,40.49
2023-05-20T19:33:44.093Z,40.68
2023-05-20T19:36:15.644Z,40.84
2023-05-20T19:38:43.480Z,40.46
2023-05-20T19:41:13.626Z,41.19
2023-05-20T19:43:45.889Z,41.22
2023-05-20T19:46:13.284Z,41.09
2023-05-20T19:48:40.477Z,41.31
2023-05-20T19:51:09.859Z,41.20
2023-05-20T19:53:41.157Z,40.87
2023-05-20T19:56:10.764Z,41.52
2023-05-20T19:58:43.364Z,41.14
2023-05-20T20:01:11.063Z,42.11
2023-05-20T20:03:38.290Z,42.06
2023-05-20T20:06:05.243Z,42.86
2023-05-20T20:08:32.047Z,41.95
2023-05-20T20:10:58.869Z,43.39
2023-05-20T20:13:25.802Z,43.22
2023-05-20T20:15:53.258Z,43.83
2023-05-20T20:18:20.001Z,43.31
2023-05-20T20:20:47.156Z,43.92
2023-05-20T20:23:13.813Z,44.47
2023-05-20T20:25:41.212Z,44.09
2023-05-20T20:28:11.177Z,45.13
2023-05-20T20:30:38.402Z,44.40
2023-05-20T20:33:07.536Z,44.56
2023-05-20T20:35:34.878Z,44.25
2023-05-20T20:38:08.360Z,45.18
2023-05-20T20:40:39.421Z,44.21
2023-05-20T20:43:06.954Z,45.02
2023-05-20T20:45:42.708Z,44.91
2023-05-20T20:48:09.759Z,44.78
2023-05-20T20:50:36.641Z,44.43
2023-05-20T20:53:03.264Z,45.04
2023-05-20T20:55:30.688Z,45.35
2023-05-20T20:57:57.865Z,45.00
2023-05-20T21:00:27.510Z,45.36
2023-05-20T21:02:56.373Z,47.03
2023-05-20T21:05:26.755Z,45.84
2023-05-20T21:07:58.403Z,45.86
2023-05-20T21:10:29.639Z,46.09
2023-05-20T21:12:57.048Z,46.60
2023-05-20T21:15:23.987Z,47.17
2023-05-20T21:17:50.874Z,47.11
2023-05-20T21:20:21.507Z,47.44
2023-05-20T21:22:50.940Z,47.37
2023-05-20T21:25:17.645Z,47.57
2023-05-20T21:27:46.756Z,47.85
2023-05-20T21:30:13.647Z,47.53
2023-05-20T21:32:40.492Z,48.23
2023-05-20T21:35:07.545Z,48.11
2023-05-20T21:37:34.201Z,47.86
2023-05-20T21:40:00.930Z,48.34
2023-05-20T21:42:29.941Z,48.29
2023-05-20T21:44:59.284Z,48.06
2023-05-20T21:47:28.265Z,48.23
2023-05-20T21:49:57.431Z,48.17
2023-05-20T21:52:24.069Z,49.51
2023-05-20T21:54:50.757Z,49.68
2023-05-20T21:57:19.791Z,49.71
2023-05-20T21:59:48.987Z,49.23
2023-05-20T22:02:16.000Z,49.52
2023-05-20T22:04:43.616Z,49.94
2023-05-20T22:07:10.974Z,49.84
2023-05-20T22:09:37.692Z,50.27
2023-05-20T22:12:04.869Z,50.84
2023-05-20T22:14:34.066Z,49.98
2023-05-20T22:17:01.161Z,50.76
2023-05-20T22:19:28.221Z,50.54
2023-05-20T22:21:57.374Z,50.25
2023-05-20T22:24:24.025Z,50.61
2023-05-20T22:26:50.980Z,50.98
2023-05-20T22:29:17.565Z,50.18
2023-05-20T22:31:44.204Z,50.52
2023-05-20T22:34:13.230Z,50.36
2023-05-20T22:36:40.093Z,50.44
2023-05-20T22:39:09.132Z,51.03
2023-05-20T22:41:38.197Z,50.79
2023-05-20T22:44:05.036Z,51.60
2023-05-20T22:46:32.237Z,50.93
2023-05-20T22:48:59.235Z,51.52
2023-05-20T22:51:28.299Z,51.24
2023-05-20T22:53:55.999Z,51.17
2023-05-20T22:56:23.773Z,52.16
2023-05-20T22:58:50.617Z,51.37
2023-05-20T23:01:24.643Z,51.14
2023-05-20T23:03:53.552Z,51.94
2023-05-20T23:06:22.756Z,51.71
2023-05-20T23:08:49.632Z,51.74
2023-05-20T23:11:18.521Z,50.98
2023-05-20T23:13:47.522Z,51.50
2023-05-20T23:16:16.501Z,51.48
2023-05-20T23:18:46.491Z,51.34
2023-05-20T23:21:14.453Z,51.59
2023-05-20T23:23:41.650Z,51.62
2023-05-20T23:26:08.500Z,51.31
2023-05-20T23:28:35.182Z,51.64
2023-05-20T23:31:01.999Z,51.48
2023-05-20T23:33:29.568Z,51.14
2023-05-20T23:35:56.488Z,51.90
2023-05-20T23:38:25.752Z,52.25
2023-05-20T23:40:55.141Z,51.92
2023-05-20T23:43:24.821Z,51.26
2023-05-20T23:45:51.416Z,51.69
2023-05-20T23:48:20.736Z,51.46
2023-05-20T23:50:50.489Z,51.41
2023-05-20T23:53:17.571Z,51.64
2023-05-20T23:55:49.499Z,52.44
2023-05-20T23:58:19.342Z,52.27
